sensor_id;sensor_type;location;lat;lon;timestamp;P1;durP1;ratioP1;P2;durP2;ratioP2
7807;SDS011;3949;49.254;8.894;2022-09-09T00:02:19;3.40;;;1.93;;
7807;SDS011;3949;49.254;8.894;2022-09-09T00:07:47;2.43;;;2.10;;
7807;SDS011;3949;49.254;8.894;2022-09-09T00:10:21;3.83;;;2.27;;
7807;SDS011;3949;49.254;8.894;2022-09-09T00:18:21;2.87;;;2.20;;
7807;SDS011;3949;49.254;8.894;2022-09-09T00:21:10;6.10;;;2.20;;
7807;SDS011;3949;49.254;8.894;2022-09-09T00:23:56;4.00;;;2.50;;
7807;SDS011;3949;49.254;8.894;2022-09-09T00:26:26;5.07;;;2.67;;
7807;SDS011;3949;49.254;8.894;2022-09-09T00:31:33;3.80;;;2.60;;
7807;SDS011;3949;49.254;8.894;2022-09-09T00:34:03;2.57;;;2.17;;
7807;SDS011;3949;49.254;8.894;2022-09-09T00:36:31;2.57;;;2.07;;
7807;SDS011;3949;49.254;8.894;2022-09-09T00:39:00;4.07;;;2.10;;
7807;SDS011;3949;49.254;8.894;2022-09-09T00:44:44;5.03;;;2.33;;
7807;SDS011;3949;49.254;8.894;2022-09-09T00:52:28;3.93;;;2.03;;
7807;SDS011;3949;49.254;8.894;2022-09-09T01:03:02;4.70;;;2.20;;
7807;SDS011;3949;49.254;8.894;2022-09-09T01:05:29;2.30;;;2.03;;
7807;SDS011;3949;49.254;8.894;2022-09-09T01:08:00;2.07;;;1.70;;
7807;SDS011;3949;49.254;8.894;2022-09-09T01:13:08;2.37;;;2.17;;
7807;SDS011;3949;49.254;8.894;2022-09-09T01:15:38;2.27;;;2.03;;
7807;SDS011;3949;49.254;8.894;2022-09-09T01:18:06;3.30;;;2.10;;
7807;SDS011;3949;49.254;8.894;2022-09-09T01:28:22;3.93;;;2.03;;
7807;SDS011;3949;49.254;8.894;2022-09-09T01:30:50;3.60;;;2.07;;
7807;SDS011;3949;49.254;8.894;2022-09-09T01:33:17;3.03;;;1.90;;
7807;SDS011;3949;49.254;8.894;2022-09-09T01:38:21;3.80;;;2.30;;
7807;SDS011;3949;49.254;8.894;2022-09-09T01:40:48;2.67;;;1.90;;
7807;SDS011;3949;49.254;8.894;2022-09-09T01:43:17;2.90;;;1.97;;
7807;SDS011;3949;49.254;8.894;2022-09-09T01:45:42;2.20;;;2.00;;
7807;SDS011;3949;49.254;8.894;2022-09-09T01:48:09;3.17;;;2.00;;
7807;SDS011;3949;49.254;8.894;2022-09-09T01:50:35;3.70;;;2.20;;
7807;SDS011;3949;49.254;8.894;2022-09-09T01:53:01;2.30;;;2.00;;
7807;SDS011;3949;49.254;8.894;2022-09-09T01:55:33;3.47;;;1.97;;
7807;SDS011;3949;49.254;8.894;2022-09-09T02:00:32;5.83;;;2.10;;
7807;SDS011;3949;49.254;8.894;2022-09-09T02:03:05;3.77;;;2.40;;
7807;SDS011;3949;49.254;8.894;2022-09-09T02:08:05;3.33;;;2.07;;
7807;SDS011;3949;49.254;8.894;2022-09-09T02:10:33;3.37;;;2.00;;
7807;SDS011;3949;49.254;8.894;2022-09-09T02:13:13;3.77;;;1.80;;
7807;SDS011;3949;49.254;8.894;2022-09-09T02:16:15;3.63;;;1.70;;
7807;SDS011;3949;49.254;8.894;2022-09-09T02:19:32;3.00;;;2.00;;
7807;SDS011;3949;49.254;8.894;2022-09-09T02:21:28;2.03;;;1.50;;
7807;SDS011;3949;49.254;8.894;2022-09-09T02:23:54;3.97;;;1.87;;
7807;SDS011;3949;49.254;8.894;2022-09-09T02:26:22;2.00;;;1.50;;
7807;SDS011;3949;49.254;8.894;2022-09-09T02:28:50;2.30;;;1.63;;
7807;SDS011;3949;49.254;8.894;2022-09-09T02:31:17;2.13;;;1.60;;
7807;SDS011;3949;49.254;8.894;2022-09-09T02:33:45;2.57;;;1.57;;
7807;SDS011;3949;49.254;8.894;2022-09-09T02:36:14;4.47;;;2.00;;
7807;SDS011;3949;49.254;8.894;2022-09-09T02:38:42;2.50;;;1.20;;
7807;SDS011;3949;49.254;8.894;2022-09-09T02:41:10;3.27;;;1.30;;
7807;SDS011;3949;49.254;8.894;2022-09-09T02:43:36;1.93;;;1.10;;
7807;SDS011;3949;49.254;8.894;2022-09-09T02:46:22;1.57;;;1.33;;
7807;SDS011;3949;49.254;8.894;2022-09-09T02:54:01;2.33;;;1.70;;
7807;SDS011;3949;49.254;8.894;2022-09-09T02:56:30;4.03;;;1.63;;
7807;SDS011;3949;49.254;8.894;2022-09-09T02:58:58;2.10;;;1.27;;
7807;SDS011;3949;49.254;8.894;2022-09-09T03:01:24;3.47;;;1.30;;
7807;SDS011;3949;49.254;8.894;2022-09-09T03:03:50;2.00;;;1.20;;
7807;SDS011;3949;49.254;8.894;2022-09-09T03:06:16;2.70;;;1.40;;
7807;SDS011;3949;49.254;8.894;2022-09-09T03:08:42;1.60;;;1.10;;
7807;SDS011;3949;49.254;8.894;2022-09-09T03:11:08;2.53;;;1.70;;
7807;SDS011;3949;49.254;8.894;2022-09-09T03:13:34;2.57;;;1.50;;
7807;SDS011;3949;49.254;8.894;2022-09-09T03:16:00;2.00;;;1.60;;
7807;SDS011;3949;49.254;8.894;2022-09-09T03:18:26;4.17;;;1.80;;
7807;SDS011;3949;49.254;8.894;2022-09-09T03:20:53;3.03;;;1.30;;
7807;SDS011;3949;49.254;8.894;2022-09-09T03:23:19;1.27;;;1.13;;
7807;SDS011;3949;49.254;8.894;2022-09-09T03:25:47;1.33;;;1.17;;
7807;SDS011;3949;49.254;8.894;2022-09-09T03:28:13;1.40;;;1.13;;
7807;SDS011;3949;49.254;8.894;2022-09-09T03:30:40;2.73;;;1.30;;
7807;SDS011;3949;49.254;8.894;2022-09-09T03:33:06;2.10;;;1.33;;
7807;SDS011;3949;49.254;8.894;2022-09-09T03:35:32;4.53;;;1.40;;
7807;SDS011;3949;49.254;8.894;2022-09-09T03:37:58;4.00;;;1.70;;
7807;SDS011;3949;49.254;8.894;2022-09-09T03:40:25;3.27;;;1.70;;
7807;SDS011;3949;49.254;8.894;2022-09-09T03:42:51;1.57;;;1.23;;
7807;SDS011;3949;49.254;8.894;2022-09-09T03:45:17;2.17;;;1.30;;
7807;SDS011;3949;49.254;8.894;2022-09-09T03:47:43;2.47;;;1.50;;
7807;SDS011;3949;49.254;8.894;2022-09-09T03:50:10;4.60;;;1.33;;
7807;SDS011;3949;49.254;8.894;2022-09-09T03:52:37;3.27;;;1.60;;
7807;SDS011;3949;49.254;8.894;2022-09-09T03:55:03;1.90;;;1.63;;
7807;SDS011;3949;49.254;8.894;2022-09-09T03:57:29;2.97;;;1.60;;
7807;SDS011;3949;49.254;8.894;2022-09-09T03:59:55;1.40;;;1.20;;
7807;SDS011;3949;49.254;8.894;2022-09-09T04:02:22;2.73;;;1.33;;
7807;SDS011;3949;49.254;8.894;2022-09-09T04:04:48;2.50;;;1.33;;
7807;SDS011;3949;49.254;8.894;2022-09-09T04:07:14;2.73;;;1.53;;
7807;SDS011;3949;49.254;8.894;2022-09-09T04:09:40;1.57;;;1.17;;
7807;SDS011;3949;49.254;8.894;2022-09-09T04:12:06;2.20;;;1.23;;
7807;SDS011;3949;49.254;8.894;2022-09-09T04:14:32;1.13;;;0.90;;
7807;SDS011;3949;49.254;8.894;2022-09-09T04:16:58;2.67;;;0.80;;
7807;SDS011;3949;49.254;8.894;2022-09-09T04:19:24;2.80;;;1.37;;
7807;SDS011;3949;49.254;8.894;2022-09-09T04:21:50;3.17;;;1.40;;
7807;SDS011;3949;49.254;8.894;2022-09-09T04:24:17;1.93;;;1.20;;
7807;SDS011;3949;49.254;8.894;2022-09-09T04:26:43;2.73;;;1.10;;
7807;SDS011;3949;49.254;8.894;2022-09-09T04:29:10;1.57;;;1.30;;
7807;SDS011;3949;49.254;8.894;2022-09-09T04:31:36;1.67;;;1.20;;
7807;SDS011;3949;49.254;8.894;2022-09-09T04:34:06;1.83;;;1.20;;
7807;SDS011;3949;49.254;8.894;2022-09-09T04:36:32;1.97;;;1.20;;
7807;SDS011;3949;49.254;8.894;2022-09-09T04:38:59;3.10;;;1.30;;
7807;SDS011;3949;49.254;8.894;2022-09-09T04:41:26;1.60;;;1.20;;
7807;SDS011;3949;49.254;8.894;2022-09-09T04:43:52;2.27;;;1.17;;
7807;SDS011;3949;49.254;8.894;2022-09-09T04:46:18;2.50;;;1.00;;
7807;SDS011;3949;49.254;8.894;2022-09-09T04:48:44;2.40;;;1.30;;
7807;SDS011;3949;49.254;8.894;2022-09-09T04:51:11;2.07;;;1.07;;
7807;SDS011;3949;49.254;8.894;2022-09-09T04:53:38;1.83;;;1.43;;
7807;SDS011;3949;49.254;8.894;2022-09-09T04:56:08;3.10;;;1.30;;
7807;SDS011;3949;49.254;8.894;2022-09-09T04:58:35;2.03;;;1.20;;
7807;SDS011;3949;49.254;8.894;2022-09-09T05:01:23;2.43;;;1.20;;
7807;SDS011;3949;49.254;8.894;2022-09-09T05:03:49;1.30;;;1.20;;
7807;SDS011;3949;49.254;8.894;2022-09-09T05:06:17;3.13;;;1.73;;
7807;SDS011;3949;49.254;8.894;2022-09-09T05:08:44;2.40;;;1.17;;
7807;SDS011;3949;49.254;8.894;2022-09-09T05:11:17;2.60;;;1.50;;
7807;SDS011;3949;49.254;8.894;2022-09-09T05:13:44;1.80;;;1.27;;
7807;SDS011;3949;49.254;8.894;2022-09-09T05:16:10;1.57;;;0.87;;
7807;SDS011;3949;49.254;8.894;2022-09-09T05:18:37;1.73;;;1.27;;
7807;SDS011;3949;49.254;8.894;2022-09-09T05:21:03;3.33;;;1.13;;
7807;SDS011;3949;49.254;8.894;2022-09-09T05:23:29;1.63;;;1.33;;
7807;SDS011;3949;49.254;8.894;2022-09-09T05:25:56;1.57;;;0.90;;
7807;SDS011;3949;49.254;8.894;2022-09-09T05:28:23;1.83;;;1.13;;
7807;SDS011;3949;49.254;8.894;2022-09-09T05:30:59;2.00;;;1.17;;
7807;SDS011;3949;49.254;8.894;2022-09-09T05:33:26;1.07;;;0.70;;
7807;SDS011;3949;49.254;8.894;2022-09-09T05:35:59;2.93;;;1.10;;
7807;SDS011;3949;49.254;8.894;2022-09-09T05:38:26;1.20;;;0.93;;
7807;SDS011;3949;49.254;8.894;2022-09-09T05:40:52;3.30;;;0.90;;
7807;SDS011;3949;49.254;8.894;2022-09-09T05:43:19;1.63;;;1.20;;
7807;SDS011;3949;49.254;8.894;2022-09-09T05:45:46;2.33;;;0.90;;
7807;SDS011;3949;49.254;8.894;2022-09-09T05:48:12;0.97;;;0.90;;
7807;SDS011;3949;49.254;8.894;2022-09-09T05:50:40;2.63;;;1.07;;
7807;SDS011;3949;49.254;8.894;2022-09-09T05:53:06;2.63;;;1.20;;
7807;SDS011;3949;49.254;8.894;2022-09-09T05:55:32;1.63;;;0.97;;
7807;SDS011;3949;49.254;8.894;2022-09-09T05:57:58;1.83;;;1.40;;
7807;SDS011;3949;49.254;8.894;2022-09-09T06:00:24;1.90;;;1.30;;
7807;SDS011;3949;49.254;8.894;2022-09-09T06:02:54;1.23;;;1.07;;
7807;SDS011;3949;49.254;8.894;2022-09-09T06:05:20;2.73;;;1.40;;
7807;SDS011;3949;49.254;8.894;2022-09-09T06:07:47;2.37;;;1.10;;
7807;SDS011;3949;49.254;8.894;2022-09-09T06:10:13;1.20;;;1.10;;
7807;SDS011;3949;49.254;8.894;2022-09-09T06:12:39;2.67;;;1.27;;
7807;SDS011;3949;49.254;8.894;2022-09-09T06:15:05;0.87;;;0.87;;
7807;SDS011;3949;49.254;8.894;2022-09-09T06:17:33;0.80;;;0.80;;
7807;SDS011;3949;49.254;8.894;2022-09-09T06:20:00;1.20;;;1.07;;
7807;SDS011;3949;49.254;8.894;2022-09-09T06:22:25;2.03;;;0.93;;
7807;SDS011;3949;49.254;8.894;2022-09-09T06:24:51;2.00;;;0.67;;
7807;SDS011;3949;49.254;8.894;2022-09-09T06:27:18;1.20;;;0.90;;
7807;SDS011;3949;49.254;8.894;2022-09-09T06:29:44;2.10;;;0.60;;
7807;SDS011;3949;49.254;8.894;2022-09-09T06:32:10;1.67;;;0.57;;
7807;SDS011;3949;49.254;8.894;2022-09-09T06:34:36;3.93;;;1.03;;
7807;SDS011;3949;49.254;8.894;2022-09-09T06:37:02;2.77;;;1.00;;
7807;SDS011;3949;49.254;8.894;2022-09-09T06:39:29;2.67;;;0.93;;
7807;SDS011;3949;49.254;8.894;2022-09-09T06:41:55;1.77;;;0.80;;
7807;SDS011;3949;49.254;8.894;2022-09-09T06:44:23;3.03;;;0.73;;
7807;SDS011;3949;49.254;8.894;2022-09-09T06:46:51;2.93;;;0.77;;
7807;SDS011;3949;49.254;8.894;2022-09-09T06:49:17;1.33;;;0.70;;
7807;SDS011;3949;49.254;8.894;2022-09-09T06:51:43;1.07;;;0.80;;
7807;SDS011;3949;49.254;8.894;2022-09-09T06:54:10;1.10;;;1.00;;
7807;SDS011;3949;49.254;8.894;2022-09-09T06:56:37;1.37;;;1.00;;
7807;SDS011;3949;49.254;8.894;2022-09-09T06:59:07;1.03;;;0.93;;
7807;SDS011;3949;49.254;8.894;2022-09-09T07:01:39;0.90;;;0.70;;
7807;SDS011;3949;49.254;8.894;2022-09-09T07:04:06;2.53;;;0.93;;
7807;SDS011;3949;49.254;8.894;2022-09-09T07:06:35;2.33;;;0.97;;
7807;SDS011;3949;49.254;8.894;2022-09-09T07:09:04;1.03;;;0.60;;
7807;SDS011;3949;49.254;8.894;2022-09-09T07:11:32;1.63;;;1.10;;
7807;SDS011;3949;49.254;8.894;2022-09-09T07:13:59;2.37;;;1.30;;
7807;SDS011;3949;49.254;8.894;2022-09-09T07:16:26;2.83;;;0.67;;
7807;SDS011;3949;49.254;8.894;2022-09-09T07:18:56;4.53;;;1.00;;
7807;SDS011;3949;49.254;8.894;2022-09-09T07:21:23;3.13;;;1.00;;
7807;SDS011;3949;49.254;8.894;2022-09-09T07:23:51;1.73;;;0.93;;
7807;SDS011;3949;49.254;8.894;2022-09-09T07:26:20;2.70;;;1.10;;
7807;SDS011;3949;49.254;8.894;2022-09-09T07:28:47;2.60;;;1.00;;
7807;SDS011;3949;49.254;8.894;2022-09-09T07:31:24;5.93;;;1.50;;
7807;SDS011;3949;49.254;8.894;2022-09-09T07:33:51;4.10;;;1.70;;
7807;SDS011;3949;49.254;8.894;2022-09-09T07:36:18;2.87;;;1.43;;
7807;SDS011;3949;49.254;8.894;2022-09-09T07:38:55;5.43;;;1.40;;
7807;SDS011;3949;49.254;8.894;2022-09-09T07:41:25;2.83;;;1.30;;
7807;SDS011;3949;49.254;8.894;2022-09-09T07:43:52;2.43;;;1.30;;
7807;SDS011;3949;49.254;8.894;2022-09-09T07:46:22;3.23;;;1.50;;
7807;SDS011;3949;49.254;8.894;2022-09-09T07:48:49;4.47;;;1.17;;
7807;SDS011;3949;49.254;8.894;2022-09-09T07:51:22;6.10;;;2.53;;
7807;SDS011;3949;49.254;8.894;2022-09-09T07:53:51;3.50;;;1.47;;
7807;SDS011;3949;49.254;8.894;2022-09-09T07:56:17;3.10;;;1.57;;
7807;SDS011;3949;49.254;8.894;2022-09-09T07:58:47;1.67;;;1.30;;
7807;SDS011;3949;49.254;8.894;2022-09-09T08:01:14;2.40;;;1.20;;
7807;SDS011;3949;49.254;8.894;2022-09-09T08:03:41;3.57;;;1.47;;
7807;SDS011;3949;49.254;8.894;2022-09-09T08:06:09;2.70;;;1.23;;
7807;SDS011;3949;49.254;8.894;2022-09-09T08:08:35;2.30;;;0.90;;
7807;SDS011;3949;49.254;8.894;2022-09-09T08:13:30;1.53;;;1.10;;
7807;SDS011;3949;49.254;8.894;2022-09-09T08:16:03;2.40;;;0.93;;
7807;SDS011;3949;49.254;8.894;2022-09-09T08:18:29;1.77;;;0.97;;
7807;SDS011;3949;49.254;8.894;2022-09-09T08:20:55;2.10;;;1.00;;
7807;SDS011;3949;49.254;8.894;2022-09-09T08:23:21;5.90;;;2.57;;
7807;SDS011;3949;49.254;8.894;2022-09-09T08:25:47;2.10;;;1.10;;
7807;SDS011;3949;49.254;8.894;2022-09-09T08:28:15;4.20;;;1.60;;
7807;SDS011;3949;49.254;8.894;2022-09-09T08:30:41;1.53;;;0.93;;
7807;SDS011;3949;49.254;8.894;2022-09-09T08:33:08;3.63;;;1.37;;
7807;SDS011;3949;49.254;8.894;2022-09-09T08:35:35;2.80;;;1.10;;
7807;SDS011;3949;49.254;8.894;2022-09-09T08:38:01;2.73;;;1.27;;
7807;SDS011;3949;49.254;8.894;2022-09-09T08:40:28;2.87;;;1.27;;
7807;SDS011;3949;49.254;8.894;2022-09-09T08:42:55;2.13;;;1.30;;
7807;SDS011;3949;49.254;8.894;2022-09-09T08:45:31;2.23;;;1.30;;
7807;SDS011;3949;49.254;8.894;2022-09-09T08:50:50;3.87;;;1.20;;
7807;SDS011;3949;49.254;8.894;2022-09-09T09:06:04;1.67;;;0.80;;
7807;SDS011;3949;49.254;8.894;2022-09-09T09:08:33;3.07;;;1.17;;
7807;SDS011;3949;49.254;8.894;2022-09-09T09:11:03;2.97;;;1.13;;
7807;SDS011;3949;49.254;8.894;2022-09-09T09:19:08;3.17;;;1.60;;
7807;SDS011;3949;49.254;8.894;2022-09-09T09:21:45;3.00;;;1.10;;
7807;SDS011;3949;49.254;8.894;2022-09-09T09:24:19;2.80;;;1.07;;
7807;SDS011;3949;49.254;8.894;2022-09-09T09:26:46;1.87;;;1.10;;
7807;SDS011;3949;49.254;8.894;2022-09-09T09:29:13;1.33;;;0.93;;
7807;SDS011;3949;49.254;8.894;2022-09-09T09:31:42;2.07;;;1.00;;
7807;SDS011;3949;49.254;8.894;2022-09-09T09:34:08;3.13;;;1.43;;
7807;SDS011;3949;49.254;8.894;2022-09-09T09:39:25;1.07;;;0.93;;
7807;SDS011;3949;49.254;8.894;2022-09-09T09:41:52;2.03;;;1.03;;
7807;SDS011;3949;49.254;8.894;2022-09-09T09:44:29;1.60;;;0.80;;
7807;SDS011;3949;49.254;8.894;2022-09-09T09:49:59;1.90;;;0.80;;
7807;SDS011;3949;49.254;8.894;2022-09-09T09:52:26;2.30;;;1.20;;
7807;SDS011;3949;49.254;8.894;2022-09-09T09:54:53;2.07;;;1.17;;
7807;SDS011;3949;49.254;8.894;2022-09-09T09:57:22;3.30;;;1.20;;
7807;SDS011;3949;49.254;8.894;2022-09-09T09:59:59;2.60;;;1.20;;
7807;SDS011;3949;49.254;8.894;2022-09-09T10:02:31;2.03;;;1.00;;
7807;SDS011;3949;49.254;8.894;2022-09-09T10:07:28;1.33;;;0.87;;
7807;SDS011;3949;49.254;8.894;2022-09-09T10:09:55;1.30;;;0.90;;
7807;SDS011;3949;49.254;8.894;2022-09-09T10:13:05;1.10;;;0.77;;
7807;SDS011;3949;49.254;8.894;2022-09-09T10:20:38;3.08;;;1.10;;
7807;SDS011;3949;49.254;8.894;2022-09-09T10:23:20;3.27;;;1.00;;
7807;SDS011;3949;49.254;8.894;2022-09-09T10:33:26;2.28;;;1.20;;
7807;SDS011;3949;49.254;8.894;2022-09-09T10:38:40;2.22;;;1.20;;
7807;SDS011;3949;49.254;8.894;2022-09-09T10:41:11;2.25;;;1.30;;
7807;SDS011;3949;49.254;8.894;2022-09-09T10:54:01;2.08;;;0.88;;
7807;SDS011;3949;49.254;8.894;2022-09-09T10:56:32;1.30;;;0.93;;
7807;SDS011;3949;49.254;8.894;2022-09-09T10:59:04;2.08;;;1.13;;
7807;SDS011;3949;49.254;8.894;2022-09-09T11:01:42;2.00;;;1.10;;
7807;SDS011;3949;49.254;8.894;2022-09-09T11:04:16;2.90;;;1.85;;
7807;SDS011;3949;49.254;8.894;2022-09-09T11:06:44;1.70;;;0.90;;
7807;SDS011;3949;49.254;8.894;2022-09-09T11:09:17;2.58;;;1.10;;
7807;SDS011;3949;49.254;8.894;2022-09-09T11:11:49;1.10;;;0.90;;
7807;SDS011;3949;49.254;8.894;2022-09-09T11:14:19;1.88;;;1.00;;
7807;SDS011;3949;49.254;8.894;2022-09-09T11:16:50;2.58;;;1.05;;
7807;SDS011;3949;49.254;8.894;2022-09-09T11:21:56;2.08;;;0.80;;
7807;SDS011;3949;49.254;8.894;2022-09-09T11:27:11;2.10;;;1.02;;
7807;SDS011;3949;49.254;8.894;2022-09-09T11:29:43;2.10;;;0.90;;
7807;SDS011;3949;49.254;8.894;2022-09-09T11:37:27;3.55;;;1.30;;
7807;SDS011;3949;49.254;8.894;2022-09-09T11:40:39;2.47;;;1.15;;
7807;SDS011;3949;49.254;8.894;2022-09-09T11:42:46;1.85;;;0.90;;
7807;SDS011;3949;49.254;8.894;2022-09-09T11:47:56;2.28;;;0.90;;
7807;SDS011;3949;49.254;8.894;2022-09-09T11:52:49;1.83;;;0.90;;
7807;SDS011;3949;49.254;8.894;2022-09-09T11:55:31;1.20;;;0.80;;
7807;SDS011;3949;49.254;8.894;2022-09-09T11:58:05;1.77;;;0.80;;
7807;SDS011;3949;49.254;8.894;2022-09-09T12:03:00;1.10;;;0.77;;
7807;SDS011;3949;49.254;8.894;2022-09-09T12:05:42;1.38;;;0.90;;
7807;SDS011;3949;49.254;8.894;2022-09-09T12:08:10;1.25;;;0.82;;
7807;SDS011;3949;49.254;8.894;2022-09-09T12:10:40;1.75;;;1.00;;
7807;SDS011;3949;49.254;8.894;2022-09-09T12:13:16;0.93;;;0.80;;
7807;SDS011;3949;49.254;8.894;2022-09-09T12:15:47;1.90;;;1.00;;
7807;SDS011;3949;49.254;8.894;2022-09-09T12:18:14;2.57;;;1.60;;
7807;SDS011;3949;49.254;8.894;2022-09-09T12:20:50;1.67;;;0.90;;
7807;SDS011;3949;49.254;8.894;2022-09-09T12:23:22;1.87;;;0.80;;
7807;SDS011;3949;49.254;8.894;2022-09-09T12:28:18;2.15;;;0.90;;
7807;SDS011;3949;49.254;8.894;2022-09-09T12:33:17;1.52;;;1.00;;
7807;SDS011;3949;49.254;8.894;2022-09-09T12:35:44;3.10;;;1.17;;
7807;SDS011;3949;49.254;8.894;2022-09-09T12:38:13;2.83;;;1.10;;
7807;SDS011;3949;49.254;8.894;2022-09-09T12:40:40;3.17;;;1.33;;
7807;SDS011;3949;49.254;8.894;2022-09-09T12:43:19;3.35;;;0.73;;
7807;SDS011;3949;49.254;8.894;2022-09-09T12:45:46;2.13;;;1.00;;
7807;SDS011;3949;49.254;8.894;2022-09-09T12:48:15;2.03;;;0.83;;
7807;SDS011;3949;49.254;8.894;2022-09-09T12:50:43;1.00;;;0.87;;
7807;SDS011;3949;49.254;8.894;2022-09-09T12:53:12;1.90;;;1.03;;
7807;SDS011;3949;49.254;8.894;2022-09-09T12:55:41;2.13;;;1.00;;
7807;SDS011;3949;49.254;8.894;2022-09-09T12:58:14;2.00;;;0.82;;
7807;SDS011;3949;49.254;8.894;2022-09-09T13:00:48;1.00;;;0.70;;
7807;SDS011;3949;49.254;8.894;2022-09-09T13:03:16;2.15;;;1.10;;
7807;SDS011;3949;49.254;8.894;2022-09-09T13:05:42;2.00;;;0.80;;
7807;SDS011;3949;49.254;8.894;2022-09-09T13:08:09;2.33;;;1.00;;
7807;SDS011;3949;49.254;8.894;2022-09-09T13:10:38;3.72;;;1.17;;
7807;SDS011;3949;49.254;8.894;2022-09-09T13:13:15;2.20;;;1.27;;
7807;SDS011;3949;49.254;8.894;2022-09-09T13:15:52;2.72;;;1.05;;
7807;SDS011;3949;49.254;8.894;2022-09-09T13:18:21;3.10;;;1.00;;
7807;SDS011;3949;49.254;8.894;2022-09-09T13:20:48;1.73;;;0.98;;
7807;SDS011;3949;49.254;8.894;2022-09-09T13:23:14;2.90;;;0.98;;
7807;SDS011;3949;49.254;8.894;2022-09-09T13:25:42;2.58;;;1.00;;
7807;SDS011;3949;49.254;8.894;2022-09-09T13:28:20;2.00;;;0.93;;
7807;SDS011;3949;49.254;8.894;2022-09-09T13:30:54;2.55;;;1.00;;
7807;SDS011;3949;49.254;8.894;2022-09-09T13:33:24;1.98;;;0.85;;
7807;SDS011;3949;49.254;8.894;2022-09-09T13:35:56;1.95;;;0.95;;
7807;SDS011;3949;49.254;8.894;2022-09-09T13:38:23;2.07;;;1.00;;
7807;SDS011;3949;49.254;8.894;2022-09-09T13:41:08;1.70;;;0.70;;
7807;SDS011;3949;49.254;8.894;2022-09-09T13:43:38;2.30;;;0.97;;
7807;SDS011;3949;49.254;8.894;2022-09-09T13:48:56;1.40;;;0.70;;
7807;SDS011;3949;49.254;8.894;2022-09-09T13:51:38;1.47;;;0.60;;
7807;SDS011;3949;49.254;8.894;2022-09-09T13:54:05;0.43;;;0.43;;
7807;SDS011;3949;49.254;8.894;2022-09-09T13:56:32;1.53;;;0.63;;
7807;SDS011;3949;49.254;8.894;2022-09-09T13:58:58;1.33;;;0.77;;
7807;SDS011;3949;49.254;8.894;2022-09-09T14:01:24;0.80;;;0.60;;
7807;SDS011;3949;49.254;8.894;2022-09-09T14:03:50;2.10;;;0.80;;
7807;SDS011;3949;49.254;8.894;2022-09-09T14:06:17;1.27;;;0.73;;
7807;SDS011;3949;49.254;8.894;2022-09-09T14:08:43;0.60;;;0.57;;
7807;SDS011;3949;49.254;8.894;2022-09-09T14:11:11;1.20;;;0.90;;
7807;SDS011;3949;49.254;8.894;2022-09-09T14:13:38;0.93;;;0.80;;
7807;SDS011;3949;49.254;8.894;2022-09-09T14:16:04;0.60;;;0.53;;
7807;SDS011;3949;49.254;8.894;2022-09-09T14:18:30;1.40;;;0.87;;
7807;SDS011;3949;49.254;8.894;2022-09-09T14:20:56;0.90;;;0.50;;
7807;SDS011;3949;49.254;8.894;2022-09-09T14:23:23;1.17;;;0.47;;
7807;SDS011;3949;49.254;8.894;2022-09-09T14:25:49;1.17;;;0.60;;
7807;SDS011;3949;49.254;8.894;2022-09-09T14:28:15;1.17;;;0.60;;
7807;SDS011;3949;49.254;8.894;2022-09-09T14:30:42;2.53;;;0.80;;
7807;SDS011;3949;49.254;8.894;2022-09-09T14:33:13;0.60;;;0.20;;
7807;SDS011;3949;49.254;8.894;2022-09-09T14:35:39;0.93;;;0.60;;
7807;SDS011;3949;49.254;8.894;2022-09-09T14:38:06;0.77;;;0.40;;
7807;SDS011;3949;49.254;8.894;2022-09-09T14:40:33;1.90;;;0.50;;
7807;SDS011;3949;49.254;8.894;2022-09-09T14:42:59;2.33;;;0.70;;
7807;SDS011;3949;49.254;8.894;2022-09-09T14:45:25;0.57;;;0.50;;
7807;SDS011;3949;49.254;8.894;2022-09-09T14:47:51;1.67;;;0.80;;
7807;SDS011;3949;49.254;8.894;2022-09-09T14:50:18;1.33;;;0.53;;
7807;SDS011;3949;49.254;8.894;2022-09-09T14:52:44;0.93;;;0.67;;
7807;SDS011;3949;49.254;8.894;2022-09-09T14:55:11;1.30;;;1.10;;
7807;SDS011;3949;49.254;8.894;2022-09-09T14:57:37;2.50;;;1.50;;
7807;SDS011;3949;49.254;8.894;2022-09-09T15:00:05;2.27;;;1.20;;
7807;SDS011;3949;49.254;8.894;2022-09-09T15:02:32;1.93;;;1.30;;
7807;SDS011;3949;49.254;8.894;2022-09-09T15:04:58;1.00;;;0.80;;
7807;SDS011;3949;49.254;8.894;2022-09-09T15:07:24;0.97;;;0.87;;
7807;SDS011;3949;49.254;8.894;2022-09-09T15:09:50;1.50;;;1.07;;
7807;SDS011;3949;49.254;8.894;2022-09-09T15:12:16;2.23;;;1.20;;
7807;SDS011;3949;49.254;8.894;2022-09-09T15:14:46;1.90;;;1.17;;
7807;SDS011;3949;49.254;8.894;2022-09-09T15:17:12;2.03;;;1.20;;
7807;SDS011;3949;49.254;8.894;2022-09-09T15:19:38;1.37;;;0.60;;
7807;SDS011;3949;49.254;8.894;2022-09-09T15:22:05;2.27;;;1.40;;
7807;SDS011;3949;49.254;8.894;2022-09-09T15:24:32;2.00;;;0.90;;
7807;SDS011;3949;49.254;8.894;2022-09-09T15:26:58;2.00;;;1.00;;
7807;SDS011;3949;49.254;8.894;2022-09-09T15:29:24;0.80;;;0.50;;
7807;SDS011;3949;49.254;8.894;2022-09-09T15:31:50;1.03;;;0.67;;
7807;SDS011;3949;49.254;8.894;2022-09-09T15:34:16;2.53;;;0.93;;
7807;SDS011;3949;49.254;8.894;2022-09-09T15:36:43;1.87;;;0.70;;
7807;SDS011;3949;49.254;8.894;2022-09-09T15:39:11;0.80;;;0.47;;
7807;SDS011;3949;49.254;8.894;2022-09-09T15:41:38;1.63;;;0.80;;
7807;SDS011;3949;49.254;8.894;2022-09-09T15:44:04;0.80;;;0.80;;
7807;SDS011;3949;49.254;8.894;2022-09-09T15:49:13;2.70;;;1.10;;
7807;SDS011;3949;49.254;8.894;2022-09-09T15:51:43;3.30;;;1.40;;
7807;SDS011;3949;49.254;8.894;2022-09-09T15:54:14;2.33;;;1.70;;
7807;SDS011;3949;49.254;8.894;2022-09-09T15:56:42;2.47;;;1.10;;
7807;SDS011;3949;49.254;8.894;2022-09-09T15:59:08;1.27;;;0.73;;
7807;SDS011;3949;49.254;8.894;2022-09-09T16:01:34;2.17;;;0.70;;
7807;SDS011;3949;49.254;8.894;2022-09-09T16:04:01;0.73;;;0.70;;
7807;SDS011;3949;49.254;8.894;2022-09-09T16:06:27;1.00;;;0.90;;
7807;SDS011;3949;49.254;8.894;2022-09-09T16:08:54;1.40;;;0.87;;
7807;SDS011;3949;49.254;8.894;2022-09-09T16:11:22;1.43;;;0.60;;
7807;SDS011;3949;49.254;8.894;2022-09-09T16:13:49;1.73;;;0.83;;
7807;SDS011;3949;49.254;8.894;2022-09-09T16:16:16;3.43;;;1.60;;
7807;SDS011;3949;49.254;8.894;2022-09-09T16:18:43;3.33;;;1.63;;
7807;SDS011;3949;49.254;8.894;2022-09-09T16:21:14;2.47;;;0.97;;
7807;SDS011;3949;49.254;8.894;2022-09-09T16:23:40;1.50;;;1.00;;
7807;SDS011;3949;49.254;8.894;2022-09-09T16:26:08;2.13;;;0.70;;
7807;SDS011;3949;49.254;8.894;2022-09-09T16:28:35;1.07;;;0.67;;
7807;SDS011;3949;49.254;8.894;2022-09-09T16:31:04;1.23;;;0.40;;
7807;SDS011;3949;49.254;8.894;2022-09-09T16:33:30;2.67;;;0.93;;
7807;SDS011;3949;49.254;8.894;2022-09-09T16:35:56;2.27;;;0.77;;
7807;SDS011;3949;49.254;8.894;2022-09-09T16:38:22;0.70;;;0.60;;
7807;SDS011;3949;49.254;8.894;2022-09-09T16:40:49;1.03;;;0.93;;
7807;SDS011;3949;49.254;8.894;2022-09-09T16:43:15;1.07;;;0.60;;
7807;SDS011;3949;49.254;8.894;2022-09-09T16:45:44;1.13;;;0.60;;
7807;SDS011;3949;49.254;8.894;2022-09-09T16:48:11;1.50;;;0.93;;
7807;SDS011;3949;49.254;8.894;2022-09-09T16:50:37;1.43;;;0.80;;
7807;SDS011;3949;49.254;8.894;2022-09-09T16:53:04;1.33;;;0.63;;
7807;SDS011;3949;49.254;8.894;2022-09-09T16:55:36;0.93;;;0.60;;
7807;SDS011;3949;49.254;8.894;2022-09-09T16:58:02;2.00;;;0.67;;
7807;SDS011;3949;49.254;8.894;2022-09-09T17:00:28;2.63;;;0.80;;
7807;SDS011;3949;49.254;8.894;2022-09-09T17:02:54;1.80;;;1.60;;
7807;SDS011;3949;49.254;8.894;2022-09-09T17:05:20;4.47;;;1.73;;
7807;SDS011;3949;49.254;8.894;2022-09-09T17:07:48;0.93;;;0.60;;
7807;SDS011;3949;49.254;8.894;2022-09-09T17:10:14;2.07;;;0.97;;
7807;SDS011;3949;49.254;8.894;2022-09-09T17:12:40;1.63;;;1.07;;
7807;SDS011;3949;49.254;8.894;2022-09-09T17:15:06;2.07;;;1.30;;
7807;SDS011;3949;49.254;8.894;2022-09-09T17:17:32;1.77;;;0.90;;
7807;SDS011;3949;49.254;8.894;2022-09-09T17:19:58;6.10;;;4.60;;
7807;SDS011;3949;49.254;8.894;2022-09-09T17:22:24;1.23;;;0.83;;
7807;SDS011;3949;49.254;8.894;2022-09-09T17:24:51;1.40;;;1.00;;
7807;SDS011;3949;49.254;8.894;2022-09-09T17:27:17;2.87;;;0.90;;
7807;SDS011;3949;49.254;8.894;2022-09-09T17:29:43;1.50;;;0.80;;
7807;SDS011;3949;49.254;8.894;2022-09-09T17:32:09;2.17;;;0.80;;
7807;SDS011;3949;49.254;8.894;2022-09-09T17:34:35;1.03;;;0.67;;
7807;SDS011;3949;49.254;8.894;2022-09-09T17:37:03;2.33;;;1.33;;
7807;SDS011;3949;49.254;8.894;2022-09-09T17:39:30;1.33;;;0.80;;
7807;SDS011;3949;49.254;8.894;2022-09-09T17:41:56;1.60;;;1.03;;